Weather reports worldwide

Advertisment
Madrid, Spain (8222): temperature & dewpoint: 15.02.2019 22:00:00 - 21.02.2019 22:00:00 (CET)Madrid, Spain (8222): wind speed & gusts: 15.02.2019 22:00:00 - 21.02.2019 22:00:00 (CET)Madrid, Spain (8222): wind direction: 15.02.2019 22:00:00 - 21.02.2019 22:00:00 (CET)Madrid, Spain (8222): reduced air pressure: 15.02.2019 22:00:00 - 21.02.2019 22:00:00 (CET)Madrid, Spain (8222): precipitation: 15.02.2019 22:00:00 - 21.02.2019 22:00:00 (CET)
Date & Time tt [°C] td [°C] ff [km/h] ff [kn] fx [km/h] fx [kn] dd ppp [hPa] rr [mm]
21.02.2019 22:00:00 - - - - - - - - -
21.02.2019 21:00:00 12,0 -0,5 0 0 4 2 NE 1028,9 0,0
21.02.2019 20:00:00 12,7 -0,5 0 0 2 1 N 1027,9 0,0
21.02.2019 19:00:00 14,0 0,0 1 0 9 5 SW 1026,7 -
21.02.2019 18:00:00 15,6 0,9 2 1 14 7 SSE 1026,0 0,0
21.02.2019 17:00:00 16,0 1,7 4 2 14 8 SSW 1025,9 0,0
21.02.2019 16:00:00 16,0 1,7 5 3 15 8 SW 1025,8 0,0
21.02.2019 15:00:00 15,8 2,9 6 3 17 9 SE 1026,0 0,0
21.02.2019 14:00:00 14,5 3,0 4 2 12 7 S 1026,6 0,0
21.02.2019 13:00:00 13,0 3,0 4 2 11 6 E 1027,6 -
21.02.2019 12:00:00 11,4 2,7 3 1 10 6 ESE 1027,9 0,0
21.02.2019 11:00:00 9,7 2,5 6 4 16 9 NE 1028,1 0,0
21.02.2019 10:00:00 7,1 1,5 10 5 16 9 NE 1028,5 0,0
21.02.2019 09:00:00 5,8 0,9 6 3 16 9 NE 1028,6 0,0
21.02.2019 08:00:00 5,4 0,4 6 3 16 9 NE 1027,8 0,0
21.02.2019 07:00:00 5,6 0,9 5 3 13 7 NE 1027,5 -
21.02.2019 06:00:00 5,9 0,6 3 1 10 6 E 1027,3 0,0
21.02.2019 05:00:00 6,0 0,6 6 3 14 8 ENE 1027,0 0,0
21.02.2019 04:00:00 6,5 0,9 6 3 17 9 NE 1027,0 0,0
21.02.2019 03:00:00 7,5 1,3 3 2 18 10 NE 1026,3 0,0
21.02.2019 02:00:00 7,7 1,5 5 3 15 8 NNE 1026,1 0,0
21.02.2019 01:00:00 8,6 1,9 8 5 14 8 ENE 1025,7 -
21.02.2019 00:00:00 9,2 2,3 2 1 6 3 N 1025,1 0,0
20.02.2019 23:00:00 8,8 1,9 2 1 5 3 NW 1025,2 0,0
20.02.2019 22:00:00 9,5 1,9 3 2 5 3 WNW 1024,6 0,0
20.02.2019 21:00:00 10,2 1,5 3 2 5 3 WSW 1023,6 0,0
20.02.2019 20:00:00 11,0 1,7 2 1 7 4 SW 1023,2 0,0
20.02.2019 19:00:00 12,3 2,1 3 2 10 5 W 1022,5 -
20.02.2019 18:00:00 13,4 2,7 4 2 17 9 WSW 1021,8 0,0
20.02.2019 17:00:00 14,2 3,0 5 3 19 10 W 1021,6 0,0
20.02.2019 16:00:00 13,7 2,9 7 4 14 8 W 1022,0 0,0
20.02.2019 15:00:00 13,6 3,0 2 1 13 7 WSW 1022,0 0,0
20.02.2019 14:00:00 12,6 3,2 2 1 10 5 SSW 1022,8 0,0
20.02.2019 13:00:00 11,0 3,0 3 2 12 7 ESE 1023,4 -
20.02.2019 12:00:00 9,4 2,3 6 3 12 7 ESE 1024,2 0,0
20.02.2019 11:00:00 7,9 1,7 5 3 11 6 ESE 1024,3 0,0
20.02.2019 10:00:00 6,3 1,1 3 2 9 5 E 1024,4 0,0
20.02.2019 09:00:00 5,0 0,9 2 1 9 5 ENE 1024,1 0,0
20.02.2019 08:00:00 4,0 0,4 2 1 6 3 E 1023,5 0,0
20.02.2019 07:00:00 4,3 0,4 2 1 5 3 ENE 1022,7 -
20.02.2019 06:00:00 4,5 0,4 1 1 8 4 SW 1022,7 0,0
20.02.2019 05:00:00 5,4 0,9 1 1 10 5 SSE 1022,1 0,0
20.02.2019 04:00:00 5,6 1,1 1 0 6 3 SW 1022,1 0,0
20.02.2019 03:00:00 6,6 1,5 1 1 7 4 ESE 1021,6 0,0
20.02.2019 02:00:00 7,4 2,1 2 1 6 4 E 1021,2 0,0
20.02.2019 01:00:00 7,8 3,6 0 0 5 3 SE 1020,7 -
20.02.2019 00:00:00 7,8 2,9 0 0 6 3 WNW 1020,7 0,0
19.02.2019 23:00:00 8,4 2,3 4 2 10 6 WNW 1020,4 0,0
19.02.2019 22:00:00 9,3 2,1 5 3 12 6 WNW 1019,9 0,0
19.02.2019 21:00:00 9,8 1,5 5 3 11 6 W 1019,2 0,0
19.02.2019 20:00:00 11,2 1,1 4 2 10 5 WSW 1018,5 0,0
19.02.2019 19:00:00 12,3 1,3 4 2 11 6 SSW 1017,6 -
19.02.2019 18:00:00 13,5 2,1 2 1 11 6 SSW 1016,9 0,0
19.02.2019 17:00:00 13,8 2,3 2 1 9 5 W 1016,7 0,0
19.02.2019 16:00:00 13,4 2,1 3 2 13 7 W 1017,3 0,0
19.02.2019 15:00:00 13,0 2,5 3 2 12 7 SSW 1017,7 0,0
19.02.2019 14:00:00 12,4 2,9 4 2 13 7 SE 1018,5 0,0
19.02.2019 13:00:00 10,9 2,3 3 2 16 9 ENE 1019,7 -
19.02.2019 12:00:00 10,0 2,3 5 3 12 7 SE 1020,0 0,0
19.02.2019 11:00:00 9,3 2,5 5 3 12 6 E 1020,5 0,0
19.02.2019 10:00:00 7,5 1,9 5 3 9 5 E 1020,8 0,0
19.02.2019 09:00:00 5,9 1,1 3 2 9 5 E 1020,9 0,0
19.02.2019 08:00:00 5,5 0,2 1 1 11 6 NE 1020,3 0,0
19.02.2019 07:00:00 5,6 0,4 4 2 14 7 E 1020,2 -
19.02.2019 06:00:00 5,8 1,1 1 1 8 5 E 1020,2 0,0
19.02.2019 05:00:00 6,9 2,1 4 2 10 5 E 1019,8 0,0
19.02.2019 04:00:00 7,6 2,5 4 2 15 8 ESE 1019,7 0,0
19.02.2019 03:00:00 7,2 1,9 6 3 11 6 SE 1019,8 0,0
19.02.2019 02:00:00 7,7 1,5 5 3 14 7 SE 1019,7 0,0
19.02.2019 01:00:00 8,3 1,5 4 2 10 5 SE 1019,3 -
19.02.2019 00:00:00 8,6 0,2 3 2 10 6 SE 1019,2 0,0
18.02.2019 23:00:00 9,4 0,2 1 1 7 4 E 1018,7 0,0
18.02.2019 22:00:00 10,3 0,4 4 2 12 7 ENE 1017,9 0,0
18.02.2019 21:00:00 11,0 0,6 6 3 11 6 NE 1017,2 0,0
18.02.2019 20:00:00 11,6 0,9 4 2 13 7 NE 1017,1 0,0
18.02.2019 19:00:00 12,3 1,1 0 0 11 6 E 1016,3 -
18.02.2019 18:00:00 13,5 1,5 1 1 14 8 ESE 1015,5 0,0
18.02.2019 17:00:00 13,7 1,3 6 3 16 9 SE 1015,6 0,0
18.02.2019 16:00:00 13,5 2,1 3 2 16 9 NE 1015,4 0,0
18.02.2019 15:00:00 12,3 1,9 3 2 14 7 ESE 1016,4 0,0
18.02.2019 14:00:00 11,4 1,9 5 3 17 9 E 1017,6 0,0
18.02.2019 13:00:00 10,1 1,7 6 4 18 10 ESE 1019,1 -
18.02.2019 12:00:00 8,5 1,5 7 4 16 9 E 1019,9 0,0
18.02.2019 11:00:00 7,2 1,1 6 3 16 9 ENE 1020,4 0,0
18.02.2019 10:00:00 5,5 0,4 5 3 17 9 ENE 1020,9 0,0
18.02.2019 09:00:00 4,5 -0,5 9 5 17 9 NE 1020,9 0,0
18.02.2019 08:00:00 4,1 -1,2 7 4 16 9 ENE 1020,3 0,0
18.02.2019 07:00:00 4,3 -1,4 7 4 15 8 NE 1020,4 -
18.02.2019 06:00:00 5,2 0,4 6 4 14 8 E 1020,0 0,0
18.02.2019 05:00:00 5,4 0,6 6 4 16 9 E 1019,7 0,0
18.02.2019 04:00:00 6,0 0,6 6 4 17 9 E 1020,0 0,0
18.02.2019 03:00:00 6,7 1,3 7 4 16 9 ESE 1020,2 0,0
18.02.2019 02:00:00 7,6 0,6 8 4 16 9 ESE 1019,8 0,0
18.02.2019 01:00:00 8,4 -1,0 5 3 11 6 E 1019,5 -
18.02.2019 00:00:00 8,8 -1,7 4 2 11 6 SE 1019,8 0,0
17.02.2019 23:00:00 9,2 -2,5 4 2 11 6 SSE 1020,1 0,0
17.02.2019 22:00:00 10,1 -3,3 3 1 14 8 S 1019,6 0,0
17.02.2019 21:00:00 11,2 -4,2 6 3 15 8 SE 1019,0 0,0
17.02.2019 20:00:00 12,0 -3,9 5 3 10 5 SE 1018,5 0,0
17.02.2019 19:00:00 13,0 -3,9 4 2 11 6 SSE 1018,1 -
17.02.2019 18:00:00 14,3 -3,0 3 1 14 7 SSW 1018,0 0,0
17.02.2019 17:00:00 14,8 -2,7 5 3 16 9 SSW 1018,3 0,0
17.02.2019 16:00:00 14,4 -3,0 5 3 13 7 SE 1018,8 0,0
17.02.2019 15:00:00 13,6 -3,3 5 3 16 9 SE 1019,8 0,0
17.02.2019 14:00:00 12,8 -3,9 6 4 21 12 SSE 1021,2 0,0
17.02.2019 13:00:00 11,3 -4,8 5 3 15 8 ESE 1022,7 -
17.02.2019 12:00:00 10,2 -5,4 8 5 16 9 E 1023,8 0,0
17.02.2019 11:00:00 8,9 -4,8 5 3 10 5 E 1024,4 0,0
17.02.2019 10:00:00 6,0 -4,8 5 3 15 8 NE 1025,5 0,0
17.02.2019 09:00:00 4,8 -4,8 7 4 20 11 NE 1025,6 0,0
17.02.2019 08:00:00 4,4 -4,8 8 5 24 13 NE 1025,4 0,0
17.02.2019 07:00:00 5,0 -4,8 7 4 16 9 NE 1025,4 -
17.02.2019 06:00:00 5,2 -5,1 8 5 19 10 NE 1025,5 0,0
17.02.2019 05:00:00 5,7 -5,1 6 3 18 10 NE 1025,2 0,0
17.02.2019 04:00:00 6,1 -6,4 4 2 12 7 ENE 1025,3 0,0
17.02.2019 03:00:00 7,2 -4,8 7 4 15 8 ENE 1025,5 0,0
17.02.2019 02:00:00 7,6 -4,8 6 4 15 8 NE 1025,9 0,0
17.02.2019 01:00:00 8,9 -4,5 6 3 15 8 ESE 1025,6 -
17.02.2019 00:00:00 9,7 -3,9 7 4 14 8 SE 1025,3 0,0
16.02.2019 23:00:00 10,1 -3,3 5 3 15 8 ESE 1025,4 0,0
16.02.2019 22:00:00 10,6 -3,3 4 2 19 11 ESE 1025,1 0,0
16.02.2019 21:00:00 12,2 -2,5 12 6 22 12 SE 1024,3 0,0
16.02.2019 20:00:00 13,2 -1,4 7 4 16 9 ESE 1023,7 0,0
16.02.2019 19:00:00 14,1 -1,4 7 4 21 11 SE 1022,7 -
16.02.2019 18:00:00 15,4 -1,2 12 6 26 14 SSE 1021,8 0,0
16.02.2019 17:00:00 15,9 -1,7 13 7 29 15 ESE 1022,0 0,0
16.02.2019 16:00:00 16,0 -1,7 10 6 29 16 SE 1022,0 0,0
16.02.2019 15:00:00 15,9 -1,7 8 4 26 14 SE 1023,0 0,0
16.02.2019 14:00:00 14,5 -1,7 13 7 24 13 E 1024,4 0,0
16.02.2019 13:00:00 13,4 -0,3 7 4 22 12 ENE 1025,6 -
16.02.2019 12:00:00 11,4 -0,7 9 5 19 11 E 1027,0 0,0
16.02.2019 11:00:00 9,8 0,6 8 4 16 9 NE 1027,3 0,0
16.02.2019 10:00:00 7,3 -0,5 8 5 23 12 NE 1028,0 0,0
16.02.2019 09:00:00 6,0 -1,2 11 6 22 12 NE 1027,8 0,0
16.02.2019 08:00:00 6,3 -1,2 10 6 21 11 NE 1027,0 0,0
16.02.2019 07:00:00 6,4 -1,0 13 7 21 12 NE 1026,7 -
16.02.2019 06:00:00 6,6 -1,0 9 5 20 11 NE 1026,5 0,0
16.02.2019 05:00:00 6,8 -0,7 7 4 17 9 NE 1026,3 0,0
16.02.2019 04:00:00 7,2 -0,5 8 4 18 10 NE 1026,4 0,0
16.02.2019 03:00:00 7,7 0,0 8 4 14 8 NE 1026,6 0,0
16.02.2019 02:00:00 8,2 0,4 8 4 17 9 NE 1026,7 0,0
16.02.2019 01:00:00 8,3 1,1 4 2 8 4 NE 1026,6 -
16.02.2019 00:00:00 9,3 1,5 0 0 11 6 NE 1026,3 0,0
15.02.2019 23:00:00 10,3 1,9 5 3 15 8 E 1026,0 0,0
15.02.2019 22:00:00 10,7 2,1 8 5 16 9 E 1025,3 0,0

tt = temperature
td = dewpoint
ff = wind speed
fx = gusts
dd = wind direction
ppp = reduced air pressure
rr = precipitation

Next stations